To NAV CANADA Home Page Login to a new session Search on AWWS site Feedback and Comments Disclaimer Vers la page française équivalente Tips FAQ What's new on the site To the Forecasts and Observations / NOTAM section To "File a Flight Plan" website Publications and other links Update of the User's profile FIC Telephone Numbers My Weather Data Folder Route Weather Data Regional Weather Data Local Weather Data To the Forecasts and Observations / NOTAM section
Request Generated 01/17/2017 at 04:56:24 UTC . Weather information available at that time is displayed.

METAR/TAF

TRENTON/ON    

METAR CYTR 170400Z 00000KT 6SM BR FEW250 M04/M05 A3022 RMK CI0 SLP240=
METAR CYTR 170300Z 24002KT 5SM BR FEW250 M03/M05 A3024 RMK CI0 FROIN SLP245=
METAR CYTR 170200Z 23002KT 5SM BR SKC M02/M04 A3025 RMK SLP248=

TAF AMD CYTR 170208Z 1702/1724 22005KT 6SM BR SCT150 BKN250 TEMPO
1702/1707 2SM BR
FM170700 04005KT P6SM OVC150
BECMG 1709/1711 OVC060
FM171200 07012KT P6SM -FZRA OVC030
FM171500 07012KT 3SM -FZRA BR OVC012
FM171800 07012KT 2SM -FZRA BR OVC008
RMK NXT FCST BY 170600Z=
Your time UTC time
Weather data provided by Environment Canada and NAV CANADA